Terminal Aerodrome Forecast
Issued by NWS

Home | Current Version | Previous Version | Text Only | Print | Product List | Glossary On
Versions: 1 2 3 4 5 6 7 8 9 10 11 12 13 14 15 16
940
FTUS42 KMHX 211131
TAFPGV
TAF
KPGV 211131Z 2112/2212 00000KT P6SM SCT080
      TEMPO 2112/2113 5SM BR
     FM211800 03005KT P6SM VCSH SCT090
      TEMPO 2118/2122 4SM TS BKN090CB
     FM212300 03005KT P6SM SCT090
     FM220900 00000KT 3SM BR SCT200
      AMD LTD TO CLD VIS AND WIND=

USA.gov is the U.S. government's official web portal to all federal, state and local government web resources and services.